createdAt,value
2023-03-26T00:00:31.357Z,35.34
2023-03-26T00:01:02.820Z,35.29
2023-03-26T00:01:34.258Z,35.51
2023-03-26T00:02:05.789Z,35.50
2023-03-26T00:02:37.427Z,35.43
2023-03-26T00:03:08.977Z,35.44
2023-03-26T00:03:40.434Z,35.29
2023-03-26T00:04:11.933Z,35.37
2023-03-26T00:04:43.341Z,35.48
2023-03-26T00:05:14.865Z,35.43
2023-03-26T00:05:46.348Z,35.51
2023-03-26T00:06:17.964Z,35.38
2023-03-26T00:06:49.381Z,35.46
2023-03-26T00:07:20.888Z,35.46
2023-03-26T00:07:52.397Z,35.31
2023-03-26T00:08:23.942Z,35.37
2023-03-26T00:08:55.394Z,35.46
2023-03-26T00:09:26.905Z,35.37
2023-03-26T00:09:58.368Z,35.32
2023-03-26T00:10:29.933Z,35.42
2023-03-26T00:11:01.430Z,35.30
2023-03-26T00:11:32.967Z,35.37
2023-03-26T00:12:04.461Z,35.52
2023-03-26T00:12:36.018Z,35.20
2023-03-26T00:13:10.404Z,35.29
2023-03-26T00:13:41.813Z,35.26
2023-03-26T00:14:13.381Z,35.33
2023-03-26T00:14:44.813Z,35.39
2023-03-26T00:15:16.300Z,35.40
2023-03-26T00:15:47.753Z,35.46
2023-03-26T00:16:19.250Z,35.36
2023-03-26T00:16:50.726Z,35.26
2023-03-26T00:17:22.340Z,35.41
2023-03-26T00:17:53.813Z,35.47
2023-03-26T00:18:25.368Z,35.37
2023-03-26T00:18:58.023Z,35.27
2023-03-26T00:19:29.548Z,35.39
2023-03-26T00:20:01.010Z,35.38
2023-03-26T00:20:32.499Z,35.28
2023-03-26T00:21:06.273Z,35.23
2023-03-26T00:21:37.935Z,35.30
2023-03-26T00:22:09.426Z,35.34
2023-03-26T00:22:40.860Z,35.40
2023-03-26T00:23:14.114Z,35.48
2023-03-26T00:23:45.639Z,35.23
2023-03-26T00:24:18.935Z,35.38
2023-03-26T00:24:50.350Z,35.38
2023-03-26T00:25:21.844Z,35.47
2023-03-26T00:25:53.392Z,35.37
2023-03-26T00:26:25.015Z,35.32
2023-03-26T00:26:56.403Z,35.28
2023-03-26T00:27:27.943Z,35.41
2023-03-26T00:27:59.374Z,35.37
2023-03-26T00:28:31.013Z,35.33
2023-03-26T00:29:02.514Z,35.40
2023-03-26T00:29:34.074Z,35.28
2023-03-26T00:30:08.458Z,35.37
2023-03-26T00:30:39.946Z,35.51
2023-03-26T00:31:11.454Z,35.37
2023-03-26T00:31:42.951Z,35.32
2023-03-26T00:32:14.354Z,35.28
2023-03-26T00:32:45.758Z,35.30
2023-03-26T00:33:25.546Z,35.50
2023-03-26T00:33:57.006Z,35.29
2023-03-26T00:34:28.469Z,35.27
2023-03-26T00:34:59.902Z,35.28
2023-03-26T00:35:31.386Z,35.42
2023-03-26T00:36:04.394Z,35.42
2023-03-26T00:36:36.141Z,35.28
2023-03-26T00:37:07.824Z,35.33
2023-03-26T00:37:39.246Z,35.26
2023-03-26T00:38:10.692Z,35.38
2023-03-26T00:38:44.789Z,35.30
2023-03-26T00:39:16.329Z,35.41
2023-03-26T00:39:47.795Z,35.31
2023-03-26T00:40:19.375Z,35.32
2023-03-26T00:40:53.538Z,35.36
2023-03-26T00:41:25.127Z,35.35
2023-03-26T00:41:56.797Z,35.28
2023-03-26T00:42:28.286Z,35.53
2023-03-26T00:42:59.894Z,35.38
2023-03-26T00:43:31.540Z,35.34
2023-03-26T00:44:03.042Z,35.37
2023-03-26T00:44:34.602Z,35.28
2023-03-26T00:45:08.352Z,35.17
2023-03-26T00:45:39.786Z,35.36
2023-03-26T00:46:11.270Z,35.41
2023-03-26T00:46:42.893Z,35.30
2023-03-26T00:47:14.402Z,35.37
2023-03-26T00:47:45.853Z,35.30
2023-03-26T00:48:17.350Z,35.29
2023-03-26T00:48:48.773Z,35.18
2023-03-26T00:49:20.194Z,35.30
2023-03-26T00:49:51.587Z,35.25
2023-03-26T00:50:23.113Z,35.25
2023-03-26T00:50:54.575Z,35.10
2023-03-26T00:51:26.094Z,35.30
2023-03-26T00:51:57.522Z,35.37
2023-03-26T00:52:28.923Z,35.23
2023-03-26T00:53:00.416Z,35.16
2023-03-26T00:53:31.957Z,35.25
2023-03-26T00:54:03.579Z,35.27
2023-03-26T00:54:34.983Z,35.21
2023-03-26T00:55:06.523Z,35.28
2023-03-26T00:55:40.703Z,35.36
2023-03-26T00:56:12.137Z,35.25
2023-03-26T00:56:43.597Z,35.30
2023-03-26T00:57:25.664Z,35.21
2023-03-26T00:58:00.732Z,35.38
2023-03-26T00:58:32.181Z,35.19
2023-03-26T00:59:04.236Z,35.27
2023-03-26T00:59:35.836Z,35.10
2023-03-26T01:00:07.307Z,35.25
2023-03-26T01:00:38.731Z,35.40
2023-03-26T01:01:10.220Z,35.22
2023-03-26T01:01:41.815Z,35.15
2023-03-26T01:02:13.314Z,35.39
2023-03-26T01:02:45.076Z,35.11
2023-03-26T01:03:24.963Z,35.24
2023-03-26T01:04:08.809Z,35.27
2023-03-26T01:04:40.997Z,35.09
2023-03-26T01:05:12.647Z,35.17
2023-03-26T01:05:44.169Z,35.24
2023-03-26T01:06:15.633Z,35.12
2023-03-26T01:06:47.132Z,35.06
2023-03-26T01:07:18.542Z,35.26
2023-03-26T01:07:49.937Z,35.23
2023-03-26T01:08:21.391Z,35.04
2023-03-26T01:08:52.885Z,35.24
2023-03-26T01:09:24.403Z,35.25
2023-03-26T01:09:55.869Z,35.27
2023-03-26T01:10:27.330Z,35.12
2023-03-26T01:10:58.743Z,35.21
2023-03-26T01:11:30.293Z,35.17
2023-03-26T01:12:01.795Z,35.21
2023-03-26T01:12:33.276Z,35.07
2023-03-26T01:13:07.175Z,35.07
2023-03-26T01:13:38.697Z,35.23
2023-03-26T01:14:10.394Z,35.23
2023-03-26T01:14:41.825Z,35.19
2023-03-26T01:15:13.342Z,35.13
2023-03-26T01:15:44.770Z,35.21
2023-03-26T01:16:16.280Z,35.24
2023-03-26T01:16:47.740Z,35.03
2023-03-26T01:17:19.175Z,35.28
2023-03-26T01:17:50.651Z,35.16
2023-03-26T01:18:22.228Z,35.19
2023-03-26T01:18:53.706Z,35.15
2023-03-26T01:19:27.077Z,35.11
2023-03-26T01:19:58.601Z,35.27
2023-03-26T01:20:30.061Z,35.17
2023-03-26T01:21:01.497Z,35.12
2023-03-26T01:21:32.954Z,35.16
2023-03-26T01:22:04.369Z,35.24
2023-03-26T01:22:35.904Z,35.10
2023-03-26T01:23:07.416Z,35.25
2023-03-26T01:23:38.872Z,35.06
2023-03-26T01:24:10.466Z,35.14
2023-03-26T01:24:41.953Z,34.89
2023-03-26T01:25:13.498Z,35.16
2023-03-26T01:25:44.988Z,35.14
2023-03-26T01:26:16.459Z,35.18
2023-03-26T01:26:47.948Z,35.09
2023-03-26T01:27:19.558Z,35.20
2023-03-26T01:27:51.074Z,34.99
2023-03-26T01:28:22.473Z,35.11
2023-03-26T01:28:53.947Z,35.21
2023-03-26T01:29:25.519Z,35.15
2023-03-26T01:29:56.922Z,35.13
2023-03-26T01:30:29.462Z,35.12
2023-03-26T01:31:00.873Z,35.08
2023-03-26T01:31:32.447Z,35.07
2023-03-26T01:32:03.875Z,35.23
2023-03-26T01:32:35.690Z,35.06
2023-03-26T01:33:07.426Z,35.03
2023-03-26T01:33:39.031Z,35.17
2023-03-26T01:34:10.620Z,35.05
2023-03-26T01:34:42.061Z,34.93
2023-03-26T01:35:13.572Z,35.20
2023-03-26T01:35:47.176Z,35.09
2023-03-26T01:36:18.646Z,35.15
2023-03-26T01:36:50.089Z,35.00
2023-03-26T01:37:21.478Z,35.10
2023-03-26T01:37:52.942Z,34.98
2023-03-26T01:38:25.932Z,35.11
2023-03-26T01:38:58.443Z,35.10
2023-03-26T01:39:30.835Z,35.09
2023-03-26T01:40:02.311Z,34.81
2023-03-26T01:40:33.742Z,35.09
2023-03-26T01:41:05.202Z,35.16
2023-03-26T01:41:36.909Z,34.96
2023-03-26T01:42:08.417Z,35.00
2023-03-26T01:42:39.892Z,34.88
2023-03-26T01:43:11.352Z,35.03
2023-03-26T01:43:42.769Z,35.12
2023-03-26T01:44:17.035Z,35.11
2023-03-26T01:44:48.527Z,35.01
2023-03-26T01:45:20.123Z,34.90
2023-03-26T01:45:54.568Z,35.13
2023-03-26T01:46:26.219Z,35.04
2023-03-26T01:46:57.675Z,35.06
2023-03-26T01:47:33.773Z,34.89
2023-03-26T01:48:05.265Z,35.16
2023-03-26T01:48:36.822Z,35.01
2023-03-26T01:49:11.279Z,35.09
2023-03-26T01:49:42.669Z,35.13
2023-03-26T01:50:14.259Z,35.14
2023-03-26T01:50:45.647Z,34.99
2023-03-26T01:51:18.810Z,34.76
2023-03-26T01:51:50.265Z,35.13
2023-03-26T01:52:21.706Z,35.04
2023-03-26T01:52:53.196Z,34.99
2023-03-26T01:53:24.619Z,35.02
2023-03-26T01:53:56.358Z,34.84
2023-03-26T01:54:27.816Z,34.98
2023-03-26T01:54:59.312Z,35.13
2023-03-26T01:55:33.332Z,34.87
2023-03-26T01:56:04.828Z,35.01
2023-03-26T01:56:36.290Z,34.99
2023-03-26T01:57:07.749Z,35.10
2023-03-26T01:57:39.311Z,35.02
2023-03-26T01:58:10.830Z,34.93
2023-03-26T01:58:42.351Z,34.92
2023-03-26T01:59:13.747Z,35.02
2023-03-26T01:59:45.247Z,35.01
2023-03-26T02:00:16.789Z,35.01
2023-03-26T02:00:48.276Z,35.06
2023-03-26T02:01:19.824Z,35.03
2023-03-26T02:01:51.448Z,35.04
2023-03-26T02:02:23.038Z,34.84
2023-03-26T02:02:54.607Z,35.03
2023-03-26T02:03:29.155Z,34.89
2023-03-26T02:04:00.680Z,35.00
2023-03-26T02:04:32.134Z,35.04
2023-03-26T02:05:03.599Z,35.06
2023-03-26T02:05:35.123Z,35.02
2023-03-26T02:06:06.588Z,35.04
2023-03-26T02:06:38.082Z,35.02
2023-03-26T02:07:09.706Z,35.02
2023-03-26T02:07:41.113Z,35.01
2023-03-26T02:08:12.560Z,34.94
2023-03-26T02:08:44.002Z,34.95
2023-03-26T02:09:15.450Z,34.88
2023-03-26T02:09:46.851Z,34.88
2023-03-26T02:10:21.284Z,34.89
2023-03-26T02:10:52.716Z,35.03
2023-03-26T02:11:33.553Z,34.90
2023-03-26T02:12:06.799Z,34.99
2023-03-26T02:12:38.401Z,34.88
2023-03-26T02:13:09.789Z,35.06
2023-03-26T02:13:43.842Z,34.91
2023-03-26T02:14:15.367Z,35.10
2023-03-26T02:14:46.848Z,35.00
2023-03-26T02:15:18.374Z,35.03
2023-03-26T02:15:49.872Z,34.80
2023-03-26T02:16:21.324Z,34.82
2023-03-26T02:16:52.809Z,34.78
2023-03-26T02:17:24.648Z,34.89
2023-03-26T02:17:56.131Z,34.80
2023-03-26T02:18:27.666Z,34.91
2023-03-26T02:18:59.097Z,35.00
2023-03-26T02:19:30.617Z,34.80
2023-03-26T02:20:04.835Z,34.99
2023-03-26T02:20:36.293Z,34.87
2023-03-26T02:21:07.953Z,34.95
2023-03-26T02:21:39.545Z,34.88
2023-03-26T02:22:11.306Z,34.91
2023-03-26T02:22:42.893Z,35.17
2023-03-26T02:23:14.331Z,35.02
2023-03-26T02:23:45.820Z,34.76
2023-03-26T02:24:17.284Z,34.81
2023-03-26T02:24:48.947Z,34.95
2023-03-26T02:25:20.364Z,34.89
2023-03-26T02:25:51.989Z,34.96
2023-03-26T02:26:23.626Z,34.93
2023-03-26T02:26:55.170Z,34.91
2023-03-26T02:27:26.580Z,35.08
2023-03-26T02:27:58.190Z,34.93
2023-03-26T02:28:29.581Z,34.92
2023-03-26T02:29:01.213Z,34.89
2023-03-26T02:29:32.622Z,34.89
2023-03-26T02:30:06.925Z,34.86
2023-03-26T02:30:38.459Z,34.89
2023-03-26T02:31:09.944Z,34.90
2023-03-26T02:31:41.661Z,34.99
2023-03-26T02:32:13.260Z,34.90
2023-03-26T02:32:44.746Z,34.98
2023-03-26T02:33:16.438Z,34.81
2023-03-26T02:33:47.889Z,34.93
2023-03-26T02:34:19.366Z,34.86
2023-03-26T02:34:50.764Z,34.78
2023-03-26T02:35:22.282Z,34.91
2023-03-26T02:35:54.056Z,34.90
2023-03-26T02:36:25.853Z,34.79
2023-03-26T02:36:57.407Z,34.90
2023-03-26T02:37:28.934Z,34.89
2023-03-26T02:38:03.197Z,34.89
2023-03-26T02:38:34.738Z,34.88
2023-03-26T02:39:06.183Z,34.77
2023-03-26T02:39:37.788Z,34.73
2023-03-26T02:40:09.240Z,34.91
2023-03-26T02:40:40.859Z,34.73
2023-03-26T02:41:12.317Z,34.83
2023-03-26T02:41:43.834Z,34.86
2023-03-26T02:42:15.269Z,34.76
2023-03-26T02:42:49.579Z,34.93
2023-03-26T02:43:21.175Z,34.91
2023-03-26T02:43:52.553Z,34.75
2023-03-26T02:44:24.128Z,34.75
2023-03-26T02:44:55.574Z,34.95
2023-03-26T02:45:27.200Z,34.78
2023-03-26T02:45:58.970Z,34.90
2023-03-26T02:46:30.589Z,34.93
2023-03-26T02:47:02.132Z,34.86
2023-03-26T02:47:33.559Z,34.72
2023-03-26T02:48:05.151Z,34.89
2023-03-26T02:48:36.724Z,34.81
2023-03-26T02:49:08.267Z,34.83
2023-03-26T02:49:41.146Z,34.72
2023-03-26T02:50:12.552Z,34.61
2023-03-26T02:50:43.963Z,34.86
2023-03-26T02:51:15.528Z,34.67
2023-03-26T02:51:46.996Z,34.66
2023-03-26T02:52:18.618Z,34.81
2023-03-26T02:52:50.315Z,34.83
2023-03-26T02:53:21.756Z,34.59
2023-03-26T02:53:53.192Z,34.59
2023-03-26T02:54:24.749Z,34.78
2023-03-26T02:54:56.171Z,34.69
2023-03-26T02:55:27.644Z,34.73
2023-03-26T02:55:59.098Z,34.83
2023-03-26T02:56:30.701Z,34.79
2023-03-26T02:57:02.217Z,34.77
2023-03-26T02:57:33.829Z,34.75
2023-03-26T02:58:05.237Z,34.84
2023-03-26T02:58:36.788Z,34.64
2023-03-26T02:59:08.499Z,34.92
2023-03-26T02:59:40.029Z,34.88
2023-03-26T03:00:11.474Z,34.73
2023-03-26T03:00:43.000Z,34.70
2023-03-26T03:01:17.452Z,34.76
2023-03-26T03:01:49.137Z,34.77
2023-03-26T03:02:20.562Z,34.82
2023-03-26T03:02:52.177Z,34.82
2023-03-26T03:03:23.735Z,34.74
2023-03-26T03:03:55.274Z,34.74
2023-03-26T03:04:26.723Z,34.90
2023-03-26T03:04:58.268Z,34.84
2023-03-26T03:05:29.653Z,34.80
2023-03-26T03:06:01.174Z,34.86
2023-03-26T03:06:32.699Z,34.75
2023-03-26T03:07:04.223Z,34.73
2023-03-26T03:07:35.633Z,34.79
2023-03-26T03:08:07.052Z,34.88
2023-03-26T03:08:38.591Z,34.85
2023-03-26T03:09:10.118Z,34.76
2023-03-26T03:09:41.572Z,34.77
2023-03-26T03:10:16.077Z,34.84
2023-03-26T03:10:47.488Z,34.83
2023-03-26T03:11:18.939Z,34.87
2023-03-26T03:11:50.451Z,34.90
2023-03-26T03:12:21.861Z,34.81
2023-03-26T03:12:53.298Z,34.84
2023-03-26T03:13:24.818Z,34.75
2023-03-26T03:13:56.273Z,34.74
2023-03-26T03:14:27.775Z,34.94
2023-03-26T03:14:59.227Z,34.90
2023-03-26T03:15:30.898Z,34.93
2023-03-26T03:16:02.358Z,34.67
2023-03-26T03:16:33.847Z,34.72
2023-03-26T03:17:05.407Z,34.79
2023-03-26T03:17:36.855Z,34.73
2023-03-26T03:18:08.357Z,34.83
2023-03-26T03:18:39.893Z,34.75
2023-03-26T03:19:11.351Z,34.87
2023-03-26T03:19:43.008Z,34.90
2023-03-26T03:20:14.445Z,34.99
2023-03-26T03:20:45.961Z,34.99
2023-03-26T03:21:17.552Z,34.78
2023-03-26T03:21:49.073Z,34.84
2023-03-26T03:22:20.483Z,34.89
2023-03-26T03:22:52.016Z,34.93
2023-03-26T03:23:23.402Z,34.79
2023-03-26T03:24:00.195Z,34.82
2023-03-26T03:24:34.666Z,34.79
2023-03-26T03:25:07.218Z,34.67
2023-03-26T03:25:38.633Z,34.84
2023-03-26T03:26:10.212Z,34.75
2023-03-26T03:26:41.697Z,34.93
2023-03-26T03:27:13.264Z,34.73
2023-03-26T03:27:46.749Z,34.85
2023-03-26T03:28:18.213Z,34.65
2023-03-26T03:28:49.706Z,34.72
2023-03-26T03:29:21.075Z,34.81
2023-03-26T03:29:52.486Z,34.89
2023-03-26T03:30:23.915Z,34.84
2023-03-26T03:30:55.502Z,34.92
2023-03-26T03:31:27.016Z,34.88
2023-03-26T03:31:58.649Z,34.87
2023-03-26T03:32:30.078Z,34.76
2023-03-26T03:33:01.613Z,34.76
2023-03-26T03:33:33.036Z,34.89
2023-03-26T03:34:04.543Z,34.89
2023-03-26T03:34:35.932Z,34.79
2023-03-26T03:35:07.354Z,34.94
2023-03-26T03:35:38.958Z,34.92
2023-03-26T03:36:10.510Z,34.69
2023-03-26T03:36:52.158Z,34.71
2023-03-26T03:37:23.754Z,34.81
2023-03-26T03:37:55.222Z,34.78
2023-03-26T03:38:26.734Z,34.88
2023-03-26T03:38:58.130Z,34.72
2023-03-26T03:39:29.560Z,34.76
2023-03-26T03:40:01.026Z,34.84
2023-03-26T03:40:35.574Z,34.84
2023-03-26T03:41:06.990Z,34.85
2023-03-26T03:41:38.435Z,34.81
2023-03-26T03:42:09.867Z,34.93
2023-03-26T03:42:44.507Z,34.86
2023-03-26T03:43:16.019Z,34.83
2023-03-26T03:43:47.564Z,34.76
2023-03-26T03:44:19.051Z,34.76
2023-03-26T03:44:50.573Z,34.75
2023-03-26T03:45:22.026Z,34.80
2023-03-26T03:45:53.631Z,34.72
2023-03-26T03:46:26.849Z,34.78
2023-03-26T03:46:58.352Z,34.63
2023-03-26T03:47:29.754Z,34.81
2023-03-26T03:48:01.407Z,34.65
2023-03-26T03:48:33.029Z,34.82
2023-03-26T03:49:04.443Z,34.86
2023-03-26T03:49:35.833Z,34.79
2023-03-26T03:50:07.247Z,34.81
2023-03-26T03:50:38.844Z,34.71
2023-03-26T03:51:10.336Z,34.80
2023-03-26T03:51:41.795Z,34.66
2023-03-26T03:52:13.247Z,34.74
2023-03-26T03:52:44.686Z,34.76
2023-03-26T03:53:18.806Z,34.95
2023-03-26T03:53:50.223Z,34.88
2023-03-26T03:54:21.757Z,34.69
2023-03-26T03:54:53.207Z,34.87
2023-03-26T03:55:27.367Z,34.85
2023-03-26T03:55:58.922Z,34.80
2023-03-26T03:56:30.477Z,34.83
2023-03-26T03:57:02.167Z,34.57
2023-03-26T03:57:33.851Z,34.67
2023-03-26T03:58:05.247Z,34.66
2023-03-26T03:58:36.672Z,34.83
2023-03-26T03:59:08.133Z,34.82
2023-03-26T03:59:47.954Z,34.72
2023-03-26T04:00:19.847Z,34.77
2023-03-26T04:00:51.401Z,34.74
2023-03-26T04:01:22.995Z,34.72
2023-03-26T04:01:54.485Z,34.82
2023-03-26T04:02:26.438Z,34.85
2023-03-26T04:02:58.451Z,34.76
2023-03-26T04:03:33.909Z,34.78
2023-03-26T04:04:06.020Z,34.66
2023-03-26T04:04:37.505Z,34.74
2023-03-26T04:05:09.106Z,34.82
2023-03-26T04:05:40.499Z,34.78
2023-03-26T04:06:14.612Z,34.84
2023-03-26T04:06:48.529Z,34.77
2023-03-26T04:07:19.977Z,34.83
2023-03-26T04:07:51.527Z,34.79
2023-03-26T04:08:22.983Z,34.59
2023-03-26T04:08:54.541Z,34.69
2023-03-26T04:09:26.016Z,34.75
2023-03-26T04:09:57.530Z,34.77
2023-03-26T04:10:28.964Z,34.66
2023-03-26T04:11:03.213Z,34.83
2023-03-26T04:11:34.746Z,34.88
2023-03-26T04:12:09.218Z,34.73
2023-03-26T04:12:40.909Z,34.75
2023-03-26T04:13:12.319Z,34.81
2023-03-26T04:13:43.891Z,34.58
2023-03-26T04:14:18.424Z,34.79
2023-03-26T04:14:49.963Z,34.71
2023-03-26T04:15:21.432Z,34.55
2023-03-26T04:15:53.177Z,34.67
2023-03-26T04:16:24.798Z,34.65
2023-03-26T04:16:56.454Z,34.60
2023-03-26T04:17:30.506Z,34.67
2023-03-26T04:18:02.216Z,34.57
2023-03-26T04:18:33.847Z,34.69
2023-03-26T04:19:05.265Z,34.74
2023-03-26T04:19:36.698Z,34.65
2023-03-26T04:20:08.207Z,34.69
2023-03-26T04:20:39.623Z,34.49
2023-03-26T04:21:11.150Z,34.76
2023-03-26T04:21:42.609Z,34.76
2023-03-26T04:22:14.133Z,34.63
2023-03-26T04:22:45.610Z,34.75
2023-03-26T04:23:17.174Z,34.66
2023-03-26T04:23:48.594Z,34.52
2023-03-26T04:24:20.031Z,34.48
2023-03-26T04:24:51.482Z,34.66
2023-03-26T04:25:22.894Z,34.43
2023-03-26T04:25:54.640Z,34.67
2023-03-26T04:26:26.332Z,34.67
2023-03-26T04:26:57.816Z,34.66
2023-03-26T04:27:29.272Z,34.44
2023-03-26T04:28:01.030Z,34.48
2023-03-26T04:28:32.533Z,34.46
2023-03-26T04:29:04.021Z,34.67
2023-03-26T04:29:35.514Z,34.63
2023-03-26T04:30:06.897Z,34.75
2023-03-26T04:30:38.328Z,34.58
2023-03-26T04:31:09.803Z,34.64
2023-03-26T04:31:41.225Z,34.69
2023-03-26T04:32:12.714Z,34.65
2023-03-26T04:32:44.135Z,34.53
2023-03-26T04:33:15.678Z,34.57
2023-03-26T04:33:47.130Z,34.62
2023-03-26T04:34:18.616Z,34.58
2023-03-26T04:34:50.132Z,34.68
2023-03-26T04:35:24.726Z,34.51
2023-03-26T04:35:56.343Z,34.67
2023-03-26T04:36:27.984Z,34.68
2023-03-26T04:36:59.392Z,34.64
2023-03-26T04:37:36.790Z,34.63
2023-03-26T04:38:08.203Z,34.48
2023-03-26T04:38:40.043Z,34.43
2023-03-26T04:39:11.521Z,34.71
2023-03-26T04:39:42.902Z,34.56
2023-03-26T04:40:14.446Z,34.50
2023-03-26T04:40:45.854Z,34.39
2023-03-26T04:41:17.356Z,34.63
2023-03-26T04:41:48.822Z,34.63
2023-03-26T04:42:20.340Z,34.62
2023-03-26T04:42:51.822Z,34.55
2023-03-26T04:43:23.388Z,34.31
2023-03-26T04:43:54.899Z,34.58
2023-03-26T04:44:26.418Z,34.51
2023-03-26T04:44:58.065Z,34.51
2023-03-26T04:45:29.567Z,34.41
2023-03-26T04:46:01.006Z,34.50
2023-03-26T04:46:32.562Z,34.38
2023-03-26T04:47:04.132Z,34.29
2023-03-26T04:47:35.650Z,34.33
2023-03-26T04:48:07.157Z,34.44
2023-03-26T04:48:38.662Z,34.36
2023-03-26T04:49:13.288Z,34.45
2023-03-26T04:49:44.759Z,34.28
2023-03-26T04:50:16.191Z,34.24
2023-03-26T04:50:47.743Z,34.47
2023-03-26T04:51:19.145Z,34.38
2023-03-26T04:51:50.692Z,34.42
2023-03-26T04:52:22.116Z,34.46
2023-03-26T04:52:53.512Z,34.50
2023-03-26T04:53:25.034Z,34.39
2023-03-26T04:53:56.481Z,34.55
2023-03-26T04:54:28.008Z,34.48
2023-03-26T04:54:59.408Z,34.42
2023-03-26T04:55:30.910Z,34.55
2023-03-26T04:56:02.358Z,34.50
2023-03-26T04:56:33.800Z,34.51
2023-03-26T04:57:05.355Z,34.45
2023-03-26T04:57:36.731Z,34.32
2023-03-26T04:58:08.166Z,34.47
2023-03-26T04:58:39.605Z,34.55
2023-03-26T04:59:11.034Z,34.53
2023-03-26T04:59:42.480Z,34.27
2023-03-26T05:00:13.910Z,34.50
2023-03-26T05:00:45.492Z,34.24
2023-03-26T05:01:17.033Z,34.43
2023-03-26T05:01:48.525Z,34.30
2023-03-26T05:02:22.882Z,34.27
2023-03-26T05:02:54.493Z,34.58
2023-03-26T05:03:25.861Z,34.45
2023-03-26T05:03:57.523Z,34.53
2023-03-26T05:04:29.072Z,34.49
2023-03-26T05:05:00.616Z,34.36
2023-03-26T05:05:32.052Z,34.39
2023-03-26T05:06:03.583Z,34.52
2023-03-26T05:06:35.038Z,34.50
2023-03-26T05:07:06.674Z,34.39
2023-03-26T05:07:38.070Z,34.50
2023-03-26T05:08:09.635Z,34.46
2023-03-26T05:08:41.219Z,34.38
2023-03-26T05:09:12.787Z,34.46
2023-03-26T05:09:46.061Z,34.26
2023-03-26T05:10:17.466Z,34.34
2023-03-26T05:10:48.950Z,34.42
2023-03-26T05:11:23.159Z,34.33
2023-03-26T05:11:56.862Z,34.28
2023-03-26T05:12:28.368Z,34.23
2023-03-26T05:12:59.760Z,34.23
2023-03-26T05:13:31.200Z,34.38
2023-03-26T05:14:02.614Z,34.40
2023-03-26T05:14:34.200Z,34.42
2023-03-26T05:15:08.565Z,34.17
2023-03-26T05:15:40.067Z,34.40
2023-03-26T05:16:11.577Z,34.43
2023-03-26T05:16:43.204Z,34.50
2023-03-26T05:17:17.473Z,34.28
2023-03-26T05:17:51.957Z,34.40
2023-03-26T05:18:23.423Z,34.49
2023-03-26T05:18:55.180Z,34.44
2023-03-26T05:19:29.116Z,34.42
2023-03-26T05:20:00.674Z,34.37
2023-03-26T05:20:32.114Z,34.35
2023-03-26T05:21:03.675Z,34.30
2023-03-26T05:21:35.235Z,34.41
2023-03-26T05:22:06.682Z,34.40
2023-03-26T05:22:38.268Z,34.42
2023-03-26T05:23:09.742Z,34.29
2023-03-26T05:23:41.190Z,34.32
2023-03-26T05:24:12.591Z,34.40
2023-03-26T05:24:44.000Z,34.38
2023-03-26T05:25:18.399Z,34.32
2023-03-26T05:25:52.155Z,34.23
2023-03-26T05:26:23.694Z,34.42
2023-03-26T05:26:55.165Z,34.17
2023-03-26T05:27:26.584Z,34.20
2023-03-26T05:27:58.048Z,34.28
2023-03-26T05:28:29.477Z,34.26
2023-03-26T05:29:00.887Z,34.31
2023-03-26T05:29:32.370Z,34.14
2023-03-26T05:30:07.014Z,34.22
2023-03-26T05:30:38.473Z,34.28
2023-03-26T05:31:09.905Z,34.27
2023-03-26T05:31:41.280Z,34.32
2023-03-26T05:32:12.691Z,34.34
2023-03-26T05:32:46.836Z,34.32
2023-03-26T05:33:18.282Z,34.29
2023-03-26T05:33:49.822Z,34.23
2023-03-26T05:34:24.205Z,34.22
2023-03-26T05:34:55.649Z,34.45
2023-03-26T05:35:27.120Z,34.41
2023-03-26T05:35:58.677Z,34.26
2023-03-26T05:36:30.230Z,34.42
2023-03-26T05:37:01.704Z,34.23
2023-03-26T05:37:33.200Z,34.23
2023-03-26T05:38:04.620Z,34.32
2023-03-26T05:38:36.043Z,34.28
2023-03-26T05:39:07.476Z,34.20
2023-03-26T05:39:41.490Z,34.26
2023-03-26T05:40:12.964Z,34.28
2023-03-26T05:40:44.526Z,34.19
2023-03-26T05:41:16.102Z,34.37
2023-03-26T05:41:47.576Z,34.34
2023-03-26T05:42:19.014Z,34.33
2023-03-26T05:42:50.793Z,34.32
2023-03-26T05:43:22.235Z,34.26
2023-03-26T05:43:53.686Z,34.10
2023-03-26T05:44:25.165Z,34.17
2023-03-26T05:44:56.706Z,34.32
2023-03-26T05:45:28.127Z,34.19
2023-03-26T05:45:59.674Z,34.32
2023-03-26T05:46:31.295Z,34.31
2023-03-26T05:47:02.884Z,34.34
2023-03-26T05:47:34.420Z,34.27
2023-03-26T05:48:06.019Z,34.17
2023-03-26T05:48:37.513Z,34.36
2023-03-26T05:49:11.337Z,34.34
2023-03-26T05:49:42.849Z,34.08
2023-03-26T05:50:14.328Z,34.28
2023-03-26T05:50:45.817Z,34.34
2023-03-26T05:51:17.214Z,34.32
2023-03-26T05:51:48.701Z,34.35
2023-03-26T05:52:20.173Z,34.28
2023-03-26T05:52:51.730Z,34.41
2023-03-26T05:53:23.193Z,34.48
2023-03-26T05:53:54.652Z,34.27
2023-03-26T05:54:27.145Z,34.22
2023-03-26T05:54:58.580Z,34.34
2023-03-26T05:55:30.050Z,34.26
2023-03-26T05:56:01.562Z,34.23
2023-03-26T05:56:33.006Z,34.11
2023-03-26T05:57:04.621Z,34.21
2023-03-26T05:57:36.101Z,34.11
2023-03-26T05:58:07.723Z,34.29
2023-03-26T05:58:39.197Z,34.24
2023-03-26T05:59:10.709Z,34.14
2023-03-26T05:59:42.296Z,34.33
2023-03-26T06:00:13.687Z,34.27
2023-03-26T06:00:45.213Z,34.33
2023-03-26T06:01:16.781Z,34.23
2023-03-26T06:01:51.662Z,34.21
2023-03-26T06:02:23.153Z,34.31
2023-03-26T06:02:56.722Z,34.21
2023-03-26T06:03:28.913Z,34.28
2023-03-26T06:04:00.701Z,34.36
2023-03-26T06:04:32.427Z,34.25
2023-03-26T06:05:03.967Z,34.29
2023-03-26T06:05:35.407Z,34.37
2023-03-26T06:06:06.925Z,34.25
2023-03-26T06:06:38.476Z,34.38
2023-03-26T06:07:10.002Z,34.09
2023-03-26T06:07:41.450Z,34.11
2023-03-26T06:08:12.981Z,34.23
2023-03-26T06:08:44.407Z,34.24
2023-03-26T06:09:16.002Z,34.08
2023-03-26T06:09:47.444Z,34.33
2023-03-26T06:10:19.252Z,34.27
2023-03-26T06:10:50.684Z,34.07
2023-03-26T06:11:22.212Z,34.15
2023-03-26T06:11:53.624Z,34.09
2023-03-26T06:12:25.163Z,34.36
2023-03-26T06:12:56.573Z,34.27
2023-03-26T06:13:27.983Z,34.26
2023-03-26T06:13:59.488Z,34.38
2023-03-26T06:14:30.968Z,34.30
2023-03-26T06:15:08.496Z,34.29
2023-03-26T06:15:40.040Z,34.02
2023-03-26T06:16:26.499Z,34.21
2023-03-26T06:16:59.405Z,34.13
2023-03-26T06:17:30.966Z,34.06
2023-03-26T06:18:05.556Z,34.15
2023-03-26T06:18:37.146Z,34.27
2023-03-26T06:19:08.838Z,34.15
2023-03-26T06:19:40.556Z,34.25
2023-03-26T06:20:14.921Z,34.36
2023-03-26T06:20:46.360Z,34.20
2023-03-26T06:21:17.882Z,34.34
2023-03-26T06:21:49.309Z,34.28
2023-03-26T06:22:20.813Z,34.17
2023-03-26T06:22:52.399Z,34.09
2023-03-26T06:23:23.966Z,34.17
2023-03-26T06:23:55.342Z,34.31
2023-03-26T06:24:26.894Z,34.21
2023-03-26T06:24:58.422Z,34.26
2023-03-26T06:25:29.936Z,34.24
2023-03-26T06:26:01.381Z,34.13
2023-03-26T06:26:32.891Z,34.24
2023-03-26T06:27:04.321Z,34.16
2023-03-26T06:27:35.777Z,34.18
2023-03-26T06:28:07.226Z,34.21
2023-03-26T06:28:38.653Z,34.21
2023-03-26T06:29:10.069Z,34.42
2023-03-26T06:29:41.502Z,34.25
2023-03-26T06:30:16.019Z,34.21
2023-03-26T06:30:50.622Z,34.18
2023-03-26T06:31:22.143Z,34.17
2023-03-26T06:31:53.608Z,34.27
2023-03-26T06:32:25.077Z,34.26
2023-03-26T06:32:56.636Z,34.21
2023-03-26T06:33:28.104Z,34.12
2023-03-26T06:33:59.542Z,34.13
2023-03-26T06:34:31.066Z,34.08
2023-03-26T06:35:02.495Z,34.15
2023-03-26T06:35:34.024Z,34.21
2023-03-26T06:36:05.695Z,34.21
2023-03-26T06:36:37.177Z,34.31
2023-03-26T06:37:08.729Z,34.09
2023-03-26T06:37:40.220Z,34.33
2023-03-26T06:38:11.685Z,34.18
2023-03-26T06:38:43.104Z,34.32
2023-03-26T06:39:14.617Z,34.19
2023-03-26T06:39:46.063Z,34.32
2023-03-26T06:40:17.595Z,34.43
2023-03-26T06:40:49.177Z,34.35
2023-03-26T06:41:20.688Z,34.06
2023-03-26T06:41:52.113Z,34.17
2023-03-26T06:42:32.042Z,34.04
2023-03-26T06:43:17.983Z,34.22
2023-03-26T06:43:49.497Z,34.07
2023-03-26T06:44:21.000Z,34.17
2023-03-26T06:44:52.899Z,34.12
2023-03-26T06:45:26.966Z,34.08
2023-03-26T06:45:58.424Z,34.04
2023-03-26T06:46:29.901Z,34.13
2023-03-26T06:47:01.303Z,34.29
2023-03-26T06:47:32.787Z,34.06
2023-03-26T06:48:04.496Z,34.21
2023-03-26T06:48:36.022Z,34.26
2023-03-26T06:49:07.435Z,34.05
2023-03-26T06:49:40.770Z,33.98
2023-03-26T06:50:12.351Z,34.16
2023-03-26T06:50:43.756Z,34.20
2023-03-26T06:51:17.956Z,34.07